MKJP/KIN METAR and TAF weather

Enter ICAO airport designator
Station Type Date Time Source
MKJP METAR 2021/02/27 03:00 UTC NOAA

MKJP 270300Z 09009KT 9999 FEW024 26/17 Q1017


Station Type Date Time Source
MKJP Decoded METAR 2021/02/27 03:00 UTC NOAA

Kingston / Norman Manley, Jamaica (MKJP) 17-56N 076-47W 14M
Feb 26, 2021 - 10:00 PM EST / 2021.02.27 0300 UTC
Wind: from the E (090 degrees) at 10 MPH (9 KT):0
Visibility: greater than 7 mile(s):0
Sky conditions: mostly clear
Temperature: 78 F (26 C)
Dew Point: 62 F (17 C)
Relative Humidity: 57%
Pressure (altimeter): 30.03 in. Hg (1017 hPa)
ob: MKJP 270300Z 09009KT 9999 FEW024 26/17 Q1017
cycle: 3

Station Type Date Time Source
MKJP TAF 2021/02/26 18:15 UTC NOAA

TAF MKJP 261715Z 2618/2718 14023KT 9999 FEW022 SCT034
BECMG 2701/2703 35008KT FEW022
BECMG 2715/2717 14025KT

Example: see airport list